Time;durP1;ratioP1;P1;durP2;ratioP2;P2;SDS_P1;SDS_P2;PMS_P1;PMS_P2;Temp;Humidity;BMP_temperature;BMP_pressure;BME280_temperature;BME280_humidity;BME280_pressure;Samples;Min_cycle;Max_cycle;Signal;HPM_P1;HPM_P2
2024/01/04 00:01:13;;;;;;;3.97;1.13;;;7.20;99.90;;;;;;5025038;28;20341;-35
2024/01/04 00:03:39;;;;;;;4.15;1.00;;;7.20;99.90;;;;;;5023950;28;20060;-35
2024/01/04 00:06:05;;;;;;;5.65;1.00;;;7.20;99.90;;;;;;5029239;28;20159;-35
2024/01/04 00:08:31;;;;;;;2.65;0.80;;;7.20;99.90;;;;;;5023234;28;20080;-35
2024/01/04 00:10:58;;;;;;;4.95;0.90;;;7.20;99.90;;;;;;5026009;28;20546;-35
2024/01/04 00:13:24;;;;;;;2.28;0.70;;;7.20;99.90;;;;;;5004271;28;20483;-35
2024/01/04 00:15:50;;;;;;;2.67;0.70;;;7.20;99.90;;;;;;4997134;28;20076;-35
2024/01/04 00:18:15;;;;;;;2.60;0.40;;;7.20;99.90;;;;;;5020322;28;20483;-35
2024/01/04 00:20:42;;;;;;;3.40;0.40;;;7.20;99.90;;;;;;5025686;28;20136;-35
2024/01/04 00:23:07;;;;;;;4.57;0.45;;;7.10;99.90;;;;;;5015839;28;20057;-35
2024/01/04 00:25:33;;;;;;;2.25;0.22;;;7.10;99.90;;;;;;5022346;28;20053;-35
2024/01/04 00:28:00;;;;;;;2.28;0.20;;;7.00;99.90;;;;;;5028350;28;20053;-34
2024/01/04 00:30:26;;;;;;;1.02;0.32;;;7.00;99.90;;;;;;4988066;28;20349;-34
2024/01/04 00:32:52;;;;;;;2.40;0.38;;;7.00;99.90;;;;;;5022044;28;20118;-34
2024/01/04 00:35:18;;;;;;;6.28;0.40;;;7.00;99.90;;;;;;5005853;28;20073;-34
2024/01/04 00:37:44;;;;;;;3.65;0.50;;;7.00;99.90;;;;;;5005509;28;20116;-35
2024/01/04 00:40:10;;;;;;;1.35;0.20;;;7.00;99.90;;;;;;5023129;28;20057;-35
2024/01/04 00:42:36;;;;;;;1.27;0.22;;;6.90;99.90;;;;;;5013226;28;20184;-35
2024/01/04 00:45:02;;;;;;;4.68;0.30;;;6.90;99.90;;;;;;5004727;28;20072;-35
2024/01/04 00:47:27;;;;;;;2.95;0.30;;;6.90;99.90;;;;;;5008041;28;20065;-35
2024/01/04 00:49:53;;;;;;;1.75;0.28;;;6.90;99.90;;;;;;5025456;28;20055;-35
2024/01/04 00:52:19;;;;;;;2.05;0.55;;;6.90;99.90;;;;;;5025142;28;20160;-35
2024/01/04 00:54:44;;;;;;;4.25;0.30;;;6.90;99.90;;;;;;5025326;28;20057;-36
2024/01/04 00:57:10;;;;;;;3.30;0.30;;;6.90;99.90;;;;;;5028220;28;20053;-35
2024/01/04 00:59:36;;;;;;;1.55;0.13;;;6.80;99.90;;;;;;5009541;28;20093;-35
2024/01/04 01:02:02;;;;;;;1.95;0.35;;;6.90;99.90;;;;;;5019472;28;20136;-35
2024/01/04 01:04:27;;;;;;;4.63;0.75;;;6.80;99.90;;;;;;5024818;28;20765;-35
2024/01/04 01:06:53;;;;;;;2.05;0.20;;;6.80;99.90;;;;;;5022244;28;20568;-35
2024/01/04 01:09:18;;;;;;;2.13;0.40;;;6.80;99.90;;;;;;5024823;28;20129;-35
2024/01/04 01:11:44;;;;;;;1.85;0.30;;;6.80;99.90;;;;;;5014006;28;20057;-35
2024/01/04 01:14:10;;;;;;;1.52;0.32;;;6.80;99.90;;;;;;5005000;28;20561;-35
2024/01/04 01:16:36;;;;;;;0.95;0.20;;;6.80;99.90;;;;;;5025286;28;20056;-34
2024/01/04 01:19:02;;;;;;;3.97;0.40;;;6.80;99.90;;;;;;5023387;28;20171;-35
2024/01/04 01:21:28;;;;;;;3.47;0.43;;;6.80;99.90;;;;;;5027092;28;20530;-35
2024/01/04 01:23:54;;;;;;;3.85;0.38;;;6.70;99.90;;;;;;5023530;28;20057;-35
2024/01/04 01:26:20;;;;;;;2.38;0.40;;;6.70;99.90;;;;;;5024424;28;20140;-35
2024/01/04 01:28:46;;;;;;;3.35;0.50;;;6.70;99.90;;;;;;5026911;28;20064;-35
2024/01/04 01:31:11;;;;;;;2.85;0.45;;;6.70;99.90;;;;;;5024479;28;20423;-35
2024/01/04 01:33:42;;;;;;;3.92;0.50;;;6.70;99.90;;;;;;5007186;28;20123;-34
2024/01/04 01:36:09;;;;;;;4.82;0.30;;;6.70;99.90;;;;;;5006895;28;20058;-35
2024/01/04 01:38:35;;;;;;;2.33;0.43;;;6.70;99.90;;;;;;5009833;28;20060;-34
2024/01/04 01:41:00;;;;;;;4.35;0.45;;;6.60;99.90;;;;;;5006783;28;20053;-35
2024/01/04 01:43:26;;;;;;;3.05;0.30;;;6.60;99.90;;;;;;5024160;28;20072;-35
2024/01/04 01:45:52;;;;;;;4.30;0.30;;;6.60;99.90;;;;;;5003222;28;21668;-35
2024/01/04 01:48:18;;;;;;;2.10;0.20;;;6.60;99.90;;;;;;5004440;28;20058;-35
2024/01/04 01:50:44;;;;;;;1.35;0.22;;;6.60;99.90;;;;;;4985472;28;20172;-34
2024/01/04 01:53:10;;;;;;;3.55;0.30;;;6.60;99.90;;;;;;5018765;28;20053;-34
2024/01/04 01:55:36;;;;;;;2.83;0.40;;;6.60;99.90;;;;;;5015632;28;20136;-35
2024/01/04 01:58:03;;;;;;;1.90;0.20;;;6.60;99.90;;;;;;5020875;28;20730;-34
2024/01/04 02:00:30;;;;;;;2.15;0.30;;;6.60;99.90;;;;;;5024764;28;20462;-35
2024/01/04 02:02:57;;;;;;;2.83;0.30;;;6.60;99.90;;;;;;5021370;28;20063;-35
2024/01/04 02:05:22;;;;;;;3.42;0.22;;;6.60;99.90;;;;;;5022722;28;20068;-35
2024/01/04 02:07:48;;;;;;;2.25;0.20;;;6.60;99.90;;;;;;5024446;28;20148;-35
2024/01/04 02:10:14;;;;;;;1.83;0.20;;;6.60;99.90;;;;;;5006195;28;20636;-35
2024/01/04 02:12:40;;;;;;;5.68;0.20;;;6.60;99.90;;;;;;5006483;28;20515;-35
2024/01/04 02:15:07;;;;;;;0.52;0.10;;;6.60;99.90;;;;;;5000753;28;20056;-34
2024/01/04 02:17:34;;;;;;;1.38;0.13;;;6.60;99.90;;;;;;5005738;28;20058;-35
2024/01/04 02:19:59;;;;;;;3.80;0.20;;;6.60;99.90;;;;;;5019262;28;20064;-34
2024/01/04 02:22:25;;;;;;;4.35;0.20;;;6.60;99.90;;;;;;5009784;28;20058;-34
2024/01/04 02:24:51;;;;;;;3.22;0.70;;;6.60;99.90;;;;;;5019278;28;20085;-34
2024/01/04 02:27:17;;;;;;;3.30;0.30;;;6.60;99.90;;;;;;5022158;28;20400;-35
2024/01/04 02:29:43;;;;;;;2.33;0.52;;;6.60;99.90;;;;;;5020452;28;20095;-35
2024/01/04 02:32:09;;;;;;;3.53;0.40;;;6.60;99.90;;;;;;5020519;28;20049;-35
2024/01/04 02:34:34;;;;;;;2.72;0.32;;;6.60;99.90;;;;;;5023104;28;20128;-34
2024/01/04 02:37:00;;;;;;;2.30;0.30;;;6.60;99.90;;;;;;5022696;28;20060;-35
2024/01/04 02:39:26;;;;;;;3.92;0.30;;;6.60;99.90;;;;;;5019389;28;20682;-35
2024/01/04 02:41:51;;;;;;;3.08;0.30;;;6.60;99.90;;;;;;5028987;28;20053;-34
2024/01/04 02:44:17;;;;;;;1.10;0.40;;;6.60;99.90;;;;;;5024486;28;20049;-35
2024/01/04 02:46:43;;;;;;;4.05;0.50;;;6.60;99.90;;;;;;5023160;28;20133;-35
2024/01/04 02:49:09;;;;;;;3.45;0.40;;;6.60;99.90;;;;;;5024853;28;20128;-35
2024/01/04 02:51:35;;;;;;;4.68;0.30;;;6.60;99.90;;;;;;5030487;28;20461;-35
2024/01/04 02:54:00;;;;;;;2.38;0.20;;;6.60;99.90;;;;;;5024984;28;20056;-34
2024/01/04 02:56:26;;;;;;;3.53;0.40;;;6.60;99.90;;;;;;5026261;28;20050;-34
2024/01/04 02:58:52;;;;;;;4.65;0.40;;;6.60;99.90;;;;;;5027198;28;20050;-35
2024/01/04 03:01:22;;;;;;;2.63;0.30;;;6.50;99.90;;;;;;5023171;28;20116;-34
2024/01/04 03:03:51;;;;;;;5.25;0.30;;;6.50;99.90;;;;;;5007467;28;20157;-35
2024/01/04 03:06:23;;;;;;;4.03;0.32;;;6.50;99.90;;;;;;5012912;28;20510;-34
2024/01/04 03:08:50;;;;;;;2.50;0.30;;;6.50;99.90;;;;;;5029362;28;20681;-34
2024/01/04 03:11:16;;;;;;;2.72;0.30;;;6.50;99.90;;;;;;5027815;28;20103;-35
2024/01/04 03:13:41;;;;;;;3.80;0.20;;;6.50;99.90;;;;;;5028094;28;20384;-34
2024/01/04 03:16:07;;;;;;;1.98;0.15;;;6.50;99.90;;;;;;5026341;28;20146;-34
2024/01/04 03:18:34;;;;;;;4.00;0.20;;;6.50;99.90;;;;;;5017217;28;20038;-35
2024/01/04 03:21:01;;;;;;;3.05;0.30;;;6.50;99.90;;;;;;5000715;28;20438;-34
2024/01/04 03:23:27;;;;;;;2.90;0.40;;;6.40;99.90;;;;;;5025176;28;20495;-35
2024/01/04 03:25:54;;;;;;;3.58;0.28;;;6.40;99.90;;;;;;5026831;28;20111;-34
2024/01/04 03:28:20;;;;;;;2.95;0.28;;;6.40;99.90;;;;;;5009304;28;20144;-35
2024/01/04 03:30:46;;;;;;;0.90;0.20;;;6.40;99.90;;;;;;5026079;28;20055;-34
2024/01/04 03:33:12;;;;;;;2.35;0.30;;;6.50;99.90;;;;;;5016019;28;20415;-34
2024/01/04 03:35:37;;;;;;;5.05;0.47;;;6.40;99.90;;;;;;5010087;28;20066;-35
2024/01/04 03:38:03;;;;;;;1.17;0.20;;;6.40;99.90;;;;;;5005448;28;20054;-35
2024/01/04 03:40:29;;;;;;;3.00;0.20;;;6.40;99.90;;;;;;5007213;28;20060;-35
2024/01/04 03:42:55;;;;;;;2.03;0.20;;;6.40;99.90;;;;;;5014851;28;20148;-34
2024/01/04 03:45:23;;;;;;;2.58;0.77;;;6.40;99.90;;;;;;5025139;28;20046;-35
2024/01/04 03:47:49;;;;;;;3.63;0.22;;;6.40;99.90;;;;;;5024739;28;20538;-35
2024/01/04 03:50:15;;;;;;;3.78;0.25;;;6.40;99.90;;;;;;5018565;28;20053;-35
2024/01/04 03:52:40;;;;;;;1.80;0.10;;;6.40;99.90;;;;;;5022891;28;20476;-35
2024/01/04 03:55:06;;;;;;;3.33;0.28;;;6.40;99.90;;;;;;5027163;28;20103;-34
2024/01/04 03:57:32;;;;;;;4.45;0.30;;;6.40;99.90;;;;;;5027995;28;20132;-35
2024/01/04 03:59:58;;;;;;;5.47;0.20;;;6.40;99.90;;;;;;5023632;28;20136;-35
2024/01/04 04:02:23;;;;;;;6.15;0.52;;;6.40;99.90;;;;;;5010409;28;20060;-35
2024/01/04 04:04:49;;;;;;;1.42;0.30;;;6.40;99.90;;;;;;5026706;28;20438;-35
2024/01/04 04:07:15;;;;;;;2.30;0.20;;;6.40;99.90;;;;;;5024062;28;20053;-35
2024/01/04 04:09:41;;;;;;;1.60;0.20;;;6.30;99.90;;;;;;5012574;28;20049;-35
2024/01/04 04:12:06;;;;;;;3.15;0.50;;;6.30;99.90;;;;;;5009803;28;20414;-35
2024/01/04 04:14:34;;;;;;;1.98;0.20;;;6.30;99.90;;;;;;5008094;28;20070;-35
2024/01/04 04:17:02;;;;;;;2.50;0.50;;;6.30;99.90;;;;;;5006129;28;20057;-35
2024/01/04 04:19:28;;;;;;;1.92;0.28;;;6.30;99.90;;;;;;5028106;28;20091;-35
2024/01/04 04:21:54;;;;;;;1.13;0.22;;;6.20;99.90;;;;;;5025390;28;20045;-34
2024/01/04 04:24:19;;;;;;;2.40;0.30;;;6.20;99.90;;;;;;5026702;28;20049;-35
2024/01/04 04:26:45;;;;;;;4.32;0.25;;;6.20;99.90;;;;;;5008151;28;20057;-34
2024/01/04 04:29:11;;;;;;;1.38;0.45;;;6.20;99.90;;;;;;5025273;28;20527;-35
2024/01/04 04:31:44;;;;;;;5.45;0.30;;;6.10;99.90;;;;;;5024796;28;20053;-35
2024/01/04 04:34:10;;;;;;;5.32;0.38;;;6.10;99.90;;;;;;5022770;28;20045;-34
2024/01/04 04:36:35;;;;;;;3.75;0.40;;;6.20;99.90;;;;;;5025750;28;20045;-35
2024/01/04 04:39:02;;;;;;;4.40;0.20;;;6.10;99.90;;;;;;5025428;28;20044;-34
2024/01/04 04:41:28;;;;;;;2.28;0.30;;;6.10;99.90;;;;;;5019952;28;20523;-34
2024/01/04 04:43:54;;;;;;;3.90;0.50;;;6.20;99.90;;;;;;5008592;28;20449;-35
2024/01/04 04:46:20;;;;;;;5.50;0.50;;;6.10;99.90;;;;;;4992720;28;20077;-34
2024/01/04 04:48:46;;;;;;;3.42;0.40;;;6.10;99.90;;;;;;5009232;28;20061;-35
2024/01/04 04:51:11;;;;;;;5.95;0.40;;;6.10;99.90;;;;;;5005020;28;20414;-35
2024/01/04 04:53:37;;;;;;;3.13;0.40;;;6.10;99.90;;;;;;5015281;28;20053;-35
2024/01/04 04:56:04;;;;;;;2.03;0.20;;;6.10;99.90;;;;;;5023465;28;20140;-34
2024/01/04 04:58:29;;;;;;;3.65;0.30;;;6.10;99.90;;;;;;5022940;28;20049;-34
2024/01/04 05:00:56;;;;;;;4.75;0.50;;;6.10;99.90;;;;;;5024328;28;20107;-35
2024/01/04 05:03:22;;;;;;;3.20;0.30;;;6.00;99.90;;;;;;5025174;28;20053;-34
2024/01/04 05:05:48;;;;;;;2.60;0.30;;;6.10;99.90;;;;;;5017608;28;20088;-34
2024/01/04 05:08:14;;;;;;;3.15;0.20;;;6.10;99.90;;;;;;5022346;28;20116;-34
2024/01/04 05:10:40;;;;;;;1.95;0.30;;;6.00;99.90;;;;;;5021370;28;20053;-35
2024/01/04 05:13:05;;;;;;;2.80;0.20;;;6.00;99.90;;;;;;4999497;28;20049;-34
2024/01/04 05:15:31;;;;;;;1.50;0.20;;;6.00;99.90;;;;;;5023845;28;20144;-35
2024/01/04 05:17:57;;;;;;;3.97;0.30;;;6.00;99.90;;;;;;5016082;28;20049;-35
2024/01/04 05:20:22;;;;;;;3.28;0.63;;;6.00;99.90;;;;;;5004660;28;20057;-34
2024/01/04 05:22:48;;;;;;;1.30;0.43;;;6.00;99.90;;;;;;5005969;28;20504;-35
2024/01/04 05:25:14;;;;;;;2.65;0.35;;;6.00;99.90;;;;;;5008536;28;20357;-34
2024/01/04 05:27:40;;;;;;;4.35;0.30;;;6.00;99.90;;;;;;5023500;28;20053;-35
2024/01/04 05:30:07;;;;;;;2.35;0.30;;;6.10;99.90;;;;;;5022856;28;20099;-34
2024/01/04 05:32:36;;;;;;;5.57;0.30;;;6.00;99.90;;;;;;5004013;28;20041;-35
2024/01/04 05:35:03;;;;;;;2.95;0.38;;;6.00;99.90;;;;;;5017140;28;20052;-35
2024/01/04 05:37:29;;;;;;;1.83;0.40;;;6.00;99.90;;;;;;5025282;28;20060;-35
2024/01/04 05:39:54;;;;;;;2.63;0.30;;;6.00;99.90;;;;;;5025924;28;20049;-35
2024/01/04 05:42:20;;;;;;;2.40;0.30;;;6.00;99.90;;;;;;5024852;28;20132;-35
2024/01/04 05:44:46;;;;;;;3.47;0.60;;;6.00;99.90;;;;;;5024512;28;20045;-34
2024/01/04 05:47:11;;;;;;;1.30;0.30;;;6.00;99.90;;;;;;5025137;28;20414;-35
2024/01/04 05:49:37;;;;;;;3.30;0.30;;;6.00;99.90;;;;;;5022831;28;20045;-35
2024/01/04 05:52:03;;;;;;;4.00;0.63;;;6.00;99.90;;;;;;5022684;28;20037;-35
2024/01/04 05:54:29;;;;;;;2.70;0.35;;;6.00;99.90;;;;;;5005719;28;20111;-35
2024/01/04 05:56:55;;;;;;;3.92;0.40;;;6.00;99.90;;;;;;5021374;28;20087;-34
2024/01/04 05:59:24;;;;;;;5.50;0.38;;;6.00;99.90;;;;;;5020585;28;20065;-35
2024/01/04 06:01:51;;;;;;;1.63;0.22;;;6.00;99.90;;;;;;5016219;28;20068;-34
2024/01/04 06:04:16;;;;;;;2.28;0.20;;;6.00;99.90;;;;;;5025628;28;20049;-35
2024/01/04 06:06:42;;;;;;;2.47;0.40;;;5.90;99.90;;;;;;5008609;28;20129;-34
2024/01/04 06:09:08;;;;;;;2.30;0.40;;;5.90;99.90;;;;;;5011813;28;20668;-34
2024/01/04 06:11:34;;;;;;;2.70;0.30;;;5.90;99.90;;;;;;5023261;28;20045;-34
2024/01/04 06:13:59;;;;;;;2.25;0.40;;;5.90;99.90;;;;;;5031947;28;20406;-34
2024/01/04 06:16:25;;;;;;;1.98;0.20;;;5.90;99.90;;;;;;5028004;28;20053;-34
2024/01/04 06:18:51;;;;;;;2.53;0.20;;;5.90;99.90;;;;;;5009595;28;20050;-34
2024/01/04 06:21:18;;;;;;;2.70;0.22;;;5.90;99.90;;;;;;5028226;28;20045;-34
2024/01/04 06:23:43;;;;;;;2.20;0.22;;;5.90;99.90;;;;;;5024013;28;20112;-34
2024/01/04 06:26:09;;;;;;;2.28;0.75;;;5.90;99.90;;;;;;5008519;28;20466;-34
2024/01/04 06:28:36;;;;;;;2.92;0.32;;;5.90;99.90;;;;;;5014922;28;20057;-34
2024/01/04 06:31:02;;;;;;;2.67;0.20;;;5.90;99.90;;;;;;5024255;28;20152;-34
2024/01/04 06:33:28;;;;;;;2.25;0.32;;;5.90;99.90;;;;;;5029149;28;20551;-34
2024/01/04 06:35:54;;;;;;;1.40;0.20;;;5.90;99.90;;;;;;5029084;28;20136;-34
2024/01/04 06:38:19;;;;;;;1.85;0.30;;;5.80;99.90;;;;;;5025589;28;20133;-34
2024/01/04 06:40:45;;;;;;;1.77;0.22;;;5.80;99.90;;;;;;5016981;28;20104;-34
2024/01/04 06:43:11;;;;;;;2.20;0.30;;;5.80;99.90;;;;;;5015813;28;20054;-34
2024/01/04 06:45:37;;;;;;;1.98;0.30;;;5.80;99.90;;;;;;5030035;28;20128;-34
2024/01/04 06:48:04;;;;;;;2.17;0.20;;;5.80;99.90;;;;;;5029224;28;20060;-34
2024/01/04 06:50:30;;;;;;;1.63;0.20;;;5.80;99.90;;;;;;5028145;28;20498;-34
2024/01/04 06:52:56;;;;;;;4.22;0.43;;;5.80;99.90;;;;;;5029183;28;20152;-34
2024/01/04 06:55:23;;;;;;;3.03;0.30;;;5.80;99.90;;;;;;5014800;28;20518;-34
2024/01/04 06:57:48;;;;;;;3.10;0.28;;;5.80;99.90;;;;;;5026047;28;20164;-34
2024/01/04 07:00:15;;;;;;;1.58;0.30;;;5.80;99.90;;;;;;5009509;28;20562;-36
2024/01/04 07:02:41;;;;;;;4.28;0.40;;;5.80;99.90;;;;;;5007937;28;20407;-34
2024/01/04 07:05:09;;;;;;;1.17;0.30;;;5.70;99.90;;;;;;5025602;28;20046;-34
2024/01/04 07:07:36;;;;;;;5.80;0.30;;;5.70;99.90;;;;;;5028467;28;20137;-35
2024/01/04 07:10:02;;;;;;;2.13;0.43;;;5.70;99.90;;;;;;5024298;28;20478;-34
2024/01/04 07:12:28;;;;;;;1.23;0.25;;;5.70;99.90;;;;;;5025880;28;20525;-34
2024/01/04 07:14:54;;;;;;;3.60;0.38;;;5.70;99.90;;;;;;5025222;28;20045;-35
2024/01/04 07:17:23;;;;;;;1.77;0.30;;;5.70;99.90;;;;;;5028562;28;20084;-34
2024/01/04 07:19:49;;;;;;;3.20;0.40;;;5.60;99.90;;;;;;5027650;28;20567;-35
2024/01/04 07:22:15;;;;;;;2.42;0.40;;;5.60;99.90;;;;;;5029084;28;20059;-34
2024/01/04 07:24:41;;;;;;;1.52;0.30;;;5.60;99.90;;;;;;5021352;28;20049;-34
2024/01/04 07:27:08;;;;;;;2.50;0.30;;;5.60;99.90;;;;;;5006448;28;20050;-34
2024/01/04 07:29:34;;;;;;;2.22;0.40;;;5.60;99.90;;;;;;5005834;28;20068;-34
2024/01/04 07:32:00;;;;;;;2.30;0.30;;;5.60;99.90;;;;;;5006735;28;20136;-34
2024/01/04 07:34:27;;;;;;;3.15;0.32;;;5.60;99.90;;;;;;5005701;28;20108;-34
2024/01/04 07:36:52;;;;;;;1.63;0.30;;;5.60;99.90;;;;;;5027674;28;20136;-34
2024/01/04 07:39:18;;;;;;;2.88;0.38;;;5.60;99.90;;;;;;5017863;28;20140;-34
2024/01/04 07:41:44;;;;;;;1.08;0.30;;;5.70;99.90;;;;;;5026961;28;20183;-34
2024/01/04 07:44:10;;;;;;;2.78;0.30;;;5.70;99.90;;;;;;5010558;28;20411;-34
2024/01/04 07:46:36;;;;;;;3.22;0.20;;;5.60;99.90;;;;;;5027390;28;20491;-34
2024/01/04 07:49:06;;;;;;;2.45;0.30;;;5.60;99.90;;;;;;5035000;28;20049;-34
2024/01/04 07:51:32;;;;;;;3.83;0.60;;;5.60;99.90;;;;;;5006142;28;20068;-34
2024/01/04 07:53:58;;;;;;;3.30;0.40;;;5.70;99.90;;;;;;5005145;28;20088;-34
2024/01/04 07:56:24;;;;;;;2.25;0.30;;;5.70;99.90;;;;;;5021772;28;20455;-34
2024/01/04 07:58:49;;;;;;;2.45;0.30;;;5.70;99.90;;;;;;5022019;28;20482;-34
2024/01/04 08:01:15;;;;;;;2.90;0.35;;;5.70;99.90;;;;;;5024376;28;20064;-34
2024/01/04 08:03:41;;;;;;;2.58;0.30;;;5.70;99.90;;;;;;5027559;28;20128;-34
2024/01/04 08:06:06;;;;;;;2.70;0.35;;;5.70;99.90;;;;;;5024396;28;20049;-34
2024/01/04 08:08:32;;;;;;;4.38;0.60;;;5.70;99.90;;;;;;5028662;28;20077;-34
2024/01/04 08:11:01;;;;;;;1.83;0.25;;;5.70;99.90;;;;;;5026637;28;20103;-34
2024/01/04 08:13:27;;;;;;;1.55;0.30;;;5.70;99.90;;;;;;5003061;28;20057;-34
2024/01/04 08:15:52;;;;;;;2.15;0.30;;;5.70;99.90;;;;;;5026551;28;20045;-34
2024/01/04 08:18:20;;;;;;;2.22;0.35;;;5.70;99.90;;;;;;4998563;28;20049;-33
2024/01/04 08:20:46;;;;;;;2.13;0.32;;;5.70;99.90;;;;;;5008615;28;20057;-34
2024/01/04 08:23:12;;;;;;;2.25;0.40;;;5.70;99.90;;;;;;5004684;28;20414;-34
2024/01/04 08:25:38;;;;;;;2.00;0.40;;;5.70;99.90;;;;;;5016290;28;20368;-34
2024/01/04 08:28:04;;;;;;;5.65;0.28;;;5.70;99.90;;;;;;5016183;28;20046;-34
2024/01/04 08:30:30;;;;;;;3.15;0.32;;;5.70;99.90;;;;;;5004569;28;20081;-33
2024/01/04 08:32:55;;;;;;;1.63;0.40;;;5.70;99.90;;;;;;5006229;28;20134;-34
2024/01/04 08:35:21;;;;;;;4.03;0.40;;;5.70;99.90;;;;;;5004291;28;20136;-33
2024/01/04 08:37:47;;;;;;;0.98;0.22;;;5.70;99.90;;;;;;5020226;28;20053;-34
2024/01/04 08:40:13;;;;;;;1.42;0.20;;;5.70;99.90;;;;;;5026614;28;20161;-33
2024/01/04 08:42:39;;;;;;;1.80;0.30;;;5.70;99.90;;;;;;5025844;28;20148;-33
2024/01/04 08:45:06;;;;;;;1.80;0.30;;;5.70;99.90;;;;;;5024945;28;20052;-33
2024/01/04 08:47:32;;;;;;;2.97;0.38;;;5.70;99.90;;;;;;5024703;28;20053;-33
2024/01/04 08:50:01;;;;;;;2.20;0.55;;;5.80;99.90;;;;;;5024567;28;20045;-33
2024/01/04 08:52:28;;;;;;;1.50;0.40;;;5.80;99.90;;;;;;5017530;28;20051;-34
2024/01/04 08:54:53;;;;;;;2.65;0.47;;;5.70;99.90;;;;;;5019543;28;20507;-34
2024/01/04 08:57:19;;;;;;;3.53;0.40;;;5.80;99.90;;;;;;5021943;28;20056;-34
2024/01/04 08:59:45;;;;;;;2.78;0.40;;;5.80;99.90;;;;;;5017094;28;20049;-34
2024/01/04 09:02:10;;;;;;;2.65;0.60;;;5.80;99.90;;;;;;5024841;28;20473;-33
2024/01/04 09:04:36;;;;;;;2.60;0.30;;;5.80;99.90;;;;;;5003957;28;20061;-34
2024/01/04 09:07:02;;;;;;;2.17;0.30;;;5.80;99.90;;;;;;4985236;28;20129;-34
2024/01/04 09:09:28;;;;;;;2.75;0.32;;;5.80;99.90;;;;;;5003740;28;20042;-34
2024/01/04 09:11:53;;;;;;;1.20;0.30;;;5.80;99.90;;;;;;5005782;28;20108;-33
2024/01/04 09:14:19;;;;;;;2.17;0.40;;;5.80;99.90;;;;;;5014676;28;20046;-34
2024/01/04 09:16:45;;;;;;;2.85;0.43;;;5.80;99.90;;;;;;5007719;28;20077;-33
2024/01/04 09:19:15;;;;;;;2.08;0.20;;;5.90;99.90;;;;;;5024092;28;20048;-34
2024/01/04 09:21:42;;;;;;;1.38;0.15;;;5.90;99.90;;;;;;5022774;28;20499;-33
2024/01/04 09:24:08;;;;;;;1.77;0.20;;;5.90;99.90;;;;;;5017222;28;20422;-33
2024/01/04 09:26:39;;;;;;;0.63;0.20;;;6.00;99.90;;;;;;5006159;28;20046;-34
2024/01/04 09:29:05;;;;;;;4.00;0.50;;;6.00;99.90;;;;;;5019441;28;20116;-34
2024/01/04 09:31:31;;;;;;;2.30;0.30;;;6.00;99.90;;;;;;5023768;28;20045;-34
2024/01/04 09:33:57;;;;;;;1.95;0.30;;;6.00;99.90;;;;;;5008731;28;20140;-34
2024/01/04 09:36:23;;;;;;;2.97;0.40;;;6.00;99.90;;;;;;5022620;28;20128;-34
2024/01/04 09:38:49;;;;;;;2.42;0.40;;;6.00;99.90;;;;;;5020129;28;20037;-34
2024/01/04 09:41:32;;;;;;;3.03;0.40;;;6.00;99.90;;;;;;5026755;28;20053;-34
2024/01/04 09:44:06;;;;;;;1.55;0.40;;;6.00;99.90;;;;;;5026941;28;20404;-34
2024/01/04 09:46:36;;;;;;;1.40;0.43;;;6.00;99.90;;;;;;5020589;28;20378;-34
2024/01/04 09:49:03;;;;;;;4.00;0.52;;;6.00;99.90;;;;;;5030660;28;20136;-34
2024/01/04 09:51:30;;;;;;;1.45;0.40;;;6.00;99.90;;;;;;5024226;28;20115;-34
2024/01/04 09:53:56;;;;;;;2.17;0.45;;;6.00;99.90;;;;;;5023570;28;20053;-34
2024/01/04 09:56:23;;;;;;;3.10;0.43;;;6.00;99.90;;;;;;5026303;28;20053;-34
2024/01/04 09:58:49;;;;;;;2.15;0.30;;;6.00;99.90;;;;;;5018388;28;20055;-34
2024/01/04 10:01:26;;;;;;;3.53;0.50;;;6.00;99.90;;;;;;5025011;28;20743;-34
2024/01/04 10:03:53;;;;;;;3.47;0.38;;;6.10;99.90;;;;;;5023739;28;20057;-34
2024/01/04 10:06:28;;;;;;;2.35;0.40;;;6.10;99.90;;;;;;5025635;28;20163;-34
2024/01/04 10:09:00;;;;;;;2.28;0.40;;;6.10;99.90;;;;;;5022703;28;20446;-34
2024/01/04 10:11:31;;;;;;;;;;;6.10;99.90;;;;;;5022383;28;20055;-34
2024/01/04 10:13:57;;;;;;;3.83;0.38;;;6.20;99.90;;;;;;5020364;28;20000;-35
2024/01/04 10:16:23;;;;;;;2.75;0.40;;;6.20;99.90;;;;;;5024864;28;20188;-34
2024/01/04 10:18:50;;;;;;;2.63;0.40;;;6.20;99.90;;;;;;5023879;28;20667;-35
2024/01/04 10:21:16;;;;;;;0.93;0.40;;;6.30;99.90;;;;;;5025634;28;20049;-35
2024/01/04 10:23:42;;;;;;;1.20;0.22;;;6.30;99.90;;;;;;5019720;28;20176;-35
2024/01/04 10:26:13;;;;;;;2.90;0.30;;;6.30;99.90;;;;;;5021833;28;20081;-35
2024/01/04 10:28:39;;;;;;;3.42;0.35;;;6.30;99.90;;;;;;5016359;28;20475;-36
2024/01/04 10:31:08;;;;;;;4.55;0.57;;;6.30;99.90;;;;;;5022522;28;20057;-36
2024/01/04 10:33:35;;;;;;;1.33;0.45;;;6.30;99.90;;;;;;5018048;28;20582;-35
2024/01/04 10:36:09;;;;;;;4.88;0.40;;;6.40;99.90;;;;;;5010294;28;20069;-34
2024/01/04 10:38:36;;;;;;;1.48;0.45;;;6.40;99.90;;;;;;5015411;28;20057;-35
2024/01/04 10:41:02;;;;;;;1.52;0.30;;;6.50;99.90;;;;;;5020160;28;20057;-35
2024/01/04 10:43:30;;;;;;;2.85;0.30;;;6.40;99.90;;;;;;5022023;28;20049;-35
2024/01/04 10:46:08;;;;;;;2.45;0.30;;;6.40;99.90;;;;;;5017086;28;20103;-35
2024/01/04 10:48:38;;;;;;;1.63;0.43;;;6.40;99.90;;;;;;5021199;28;20584;-36
2024/01/04 10:51:05;;;;;;;3.17;0.45;;;6.40;99.90;;;;;;5017639;28;20065;-35
2024/01/04 10:53:35;;;;;;;1.73;0.50;;;6.40;99.90;;;;;;5022018;28;20057;-34
2024/01/04 10:56:05;;;;;;;1.42;0.25;;;6.40;99.90;;;;;;5020427;28;20045;-35
2024/01/04 10:58:42;;;;;;;5.80;0.30;;;6.50;99.90;;;;;;5017476;28;20049;-35
2024/01/04 11:01:09;;;;;;;1.95;0.40;;;6.40;99.90;;;;;;5022451;28;20372;-35
2024/01/04 11:03:35;;;;;;;3.00;0.60;;;6.50;99.90;;;;;;5025155;28;20410;-35
2024/01/04 11:06:04;;;;;;;1.83;0.30;;;6.50;99.90;;;;;;5026115;28;20215;-35
2024/01/04 11:08:33;;;;;;;1.75;0.73;;;6.40;99.90;;;;;;5026205;28;20495;-35
2024/01/04 11:11:00;;;;;;;4.35;0.50;;;6.50;99.90;;;;;;5025322;28;20041;-35
2024/01/04 11:13:26;;;;;;;2.70;0.50;;;6.50;99.90;;;;;;5020829;28;20053;-35
2024/01/04 11:15:55;;;;;;;2.50;0.85;;;6.50;99.90;;;;;;5017942;28;20044;-35
2024/01/04 11:18:42;;;;;;;3.95;0.68;;;6.50;99.90;;;;;;5016045;28;20136;-35
2024/01/04 11:21:59;;;;;;;2.25;0.28;;;6.50;99.90;;;;;;5018000;28;20069;-35
2024/01/04 11:24:43;;;;;;;3.08;0.50;;;6.60;99.90;;;;;;4971106;28;20057;-35
2024/01/04 11:27:14;;;;;;;4.13;0.43;;;6.60;99.90;;;;;;5020820;28;20053;-34
2024/01/04 11:29:41;;;;;;;1.33;0.30;;;6.60;99.90;;;;;;5010491;28;20054;-35
2024/01/04 11:32:07;;;;;;;2.92;0.47;;;6.60;99.90;;;;;;5019392;28;20303;-36
2024/01/04 11:34:33;;;;;;;3.83;0.45;;;6.70;99.90;;;;;;5016515;28;20527;-35
2024/01/04 11:37:16;;;;;;;2.33;0.30;;;6.70;99.90;;;;;;5013868;28;20050;-34
2024/01/04 11:39:56;;;;;;;3.58;0.40;;;6.70;99.90;;;;;;5021027;28;20046;-35
2024/01/04 11:42:36;;;;;;;4.05;0.77;;;6.80;99.90;;;;;;4999890;28;20077;-35
2024/01/04 11:45:06;;;;;;;3.33;0.55;;;6.80;99.90;;;;;;5021564;28;20107;-35
2024/01/04 11:47:38;;;;;;;2.95;0.50;;;6.90;99.90;;;;;;5015815;28;20064;-35
2024/01/04 11:50:13;;;;;;;2.50;0.60;;;6.90;99.90;;;;;;5011854;28;20049;-35
2024/01/04 11:52:39;;;;;;;2.15;0.50;;;7.00;99.90;;;;;;4993609;28;20081;-35
2024/01/04 11:55:05;;;;;;;2.30;0.30;;;7.00;99.90;;;;;;5021034;28;20125;-35
2024/01/04 11:57:34;;;;;;;5.00;0.60;;;7.00;99.90;;;;;;4991362;28;20053;-34
2024/01/04 12:00:12;;;;;;;3.30;0.30;;;7.00;99.90;;;;;;5016715;28;20061;-35
2024/01/04 12:02:41;;;;;;;2.40;0.40;;;6.90;99.90;;;;;;5008101;28;20049;-35
2024/01/04 12:05:07;;;;;;;3.90;0.50;;;7.00;99.90;;;;;;4997521;28;20054;-35
2024/01/04 12:07:35;;;;;;;3.90;0.63;;;7.00;99.90;;;;;;5001127;28;20076;-34
2024/01/04 12:10:01;;;;;;;2.28;0.40;;;7.00;99.90;;;;;;4993974;28;20519;-37
2024/01/04 12:12:27;;;;;;;1.67;0.40;;;7.10;99.90;;;;;;4998361;28;20072;-35
2024/01/04 12:14:53;;;;;;;2.15;0.32;;;7.10;99.90;;;;;;4999337;28;20045;-35
2024/01/04 12:17:19;;;;;;;4.70;0.70;;;7.10;99.90;;;;;;5002305;28;21418;-42
2024/01/04 12:19:47;;;;;;;2.22;0.50;;;7.10;99.90;;;;;;5000154;28;20068;-35
2024/01/04 12:22:13;;;;;;;2.38;0.60;;;7.10;99.90;;;;;;5005105;28;20133;-36
2024/01/04 12:24:41;;;;;;;2.20;0.60;;;7.10;99.90;;;;;;5004054;28;20428;-35
2024/01/04 12:27:08;;;;;;;3.15;0.65;;;7.10;99.90;;;;;;5007908;28;20045;-35
2024/01/04 12:29:34;;;;;;;2.88;0.60;;;7.10;99.90;;;;;;5017348;28;20499;-34
2024/01/04 12:31:59;;;;;;;2.40;0.43;;;7.10;99.90;;;;;;5020513;28;20068;-35
2024/01/04 12:34:25;;;;;;;2.40;0.45;;;7.10;99.90;;;;;;5008716;28;20071;-35
2024/01/04 12:37:03;;;;;;;2.25;0.50;;;7.10;99.90;;;;;;5025028;28;20486;-35
2024/01/04 12:39:31;;;;;;;2.55;0.40;;;7.10;99.90;;;;;;5020919;28;20053;-34
2024/01/04 12:41:57;;;;;;;2.03;0.43;;;7.00;99.90;;;;;;5020258;28;20049;-35
2024/01/04 12:44:24;;;;;;;2.20;0.40;;;7.00;99.90;;;;;;5004146;28;20475;-34
2024/01/04 12:46:50;;;;;;;4.25;0.43;;;7.00;99.90;;;;;;5008239;28;20050;-36
2024/01/04 12:49:16;;;;;;;1.38;0.40;;;6.90;99.90;;;;;;5016980;28;20095;-42
2024/01/04 12:51:43;;;;;;;3.40;0.40;;;6.90;99.90;;;;;;5020313;28;20049;-34
2024/01/04 12:54:10;;;;;;;1.05;0.40;;;7.00;99.90;;;;;;5002232;28;20073;-35
2024/01/04 12:56:36;;;;;;;1.63;0.40;;;6.90;99.90;;;;;;5022271;28;20045;-34